sensor_id;sensor_type;location;lat;lon;timestamp;pressure;altitude;pressure_sealevel;temperature;humidity
22261;BME280;11299;43.202;27.920;2023-06-14T00:01:34;236.06;;;19.05;100.00
22261;BME280;11299;43.202;27.920;2023-06-14T00:04:01;-10892.09;;;19.24;100.00
22261;BME280;11299;43.202;27.920;2023-06-14T00:06:28;-14003.63;;;18.64;100.00
22261;BME280;11299;43.202;27.920;2023-06-14T00:08:54;-21269.06;;;18.64;100.00
22261;BME280;11299;43.202;27.920;2023-06-14T00:11:20;-21291.06;;;19.35;100.00
22261;BME280;11299;43.202;27.920;2023-06-14T00:13:46;-21293.09;;;19.42;100.00
22261;BME280;11299;43.202;27.920;2023-06-14T00:16:12;-21274.06;;;18.81;100.00
22261;BME280;11299;43.202;27.920;2023-06-14T00:18:37;-21301.06;;;19.67;100.00
22261;BME280;11299;43.202;27.920;2023-06-14T00:21:03;-21296.53;;;19.53;100.00
22261;BME280;11299;43.202;27.920;2023-06-14T00:23:29;-21304.31;;;19.78;100.00
22261;BME280;11299;43.202;27.920;2023-06-14T00:25:55;-21288.72;;;19.28;100.00
22261;BME280;11299;43.202;27.920;2023-06-14T00:28:20;-21277.94;;;18.93;100.00
22261;BME280;11299;43.202;27.920;2023-06-14T00:30:46;-21310.88;;;19.99;100.00
22261;BME280;11299;43.202;27.920;2023-06-14T00:33:12;-21308.38;;;19.91;100.00
22261;BME280;11299;43.202;27.920;2023-06-14T00:35:38;-21303.41;;;19.75;100.00
22261;BME280;11299;43.202;27.920;2023-06-14T00:38:03;-21294.97;;;19.48;100.00
22261;BME280;11299;43.202;27.920;2023-06-14T00:40:29;-21291.06;;;19.35;100.00
22261;BME280;11299;43.202;27.920;2023-06-14T00:42:55;-13671.13;;;19.38;100.00
22261;BME280;11299;43.202;27.920;2023-06-14T00:45:20;-460.25;;;19.12;100.00
22261;BME280;11299;43.202;27.920;2023-06-14T00:47:47;-7756.59;;;18.27;100.00
22261;BME280;11299;43.202;27.920;2023-06-14T00:50:16;4767.75;;;19.16;100.00
22261;BME280;11299;43.202;27.920;2023-06-14T00:52:41;19089.97;;;18.87;100.00
22261;BME280;11299;43.202;27.920;2023-06-14T00:55:07;31603.13;;;16.68;100.00
22261;BME280;11299;43.202;27.920;2023-06-14T00:57:33;32781.31;;;19.00;100.00
22261;BME280;11299;43.202;27.920;2023-06-14T00:59:58;31372.28;;;18.95;100.00
22261;BME280;11299;43.202;27.920;2023-06-14T01:02:23;37368.41;;;19.19;100.00
22261;BME280;11299;43.202;27.920;2023-06-14T01:04:52;29603.19;;;18.70;100.00
22261;BME280;11299;43.202;27.920;2023-06-14T01:07:49;22608.56;;;19.26;100.00
22261;BME280;11299;43.202;27.920;2023-06-14T01:13:10;37712.44;;;19.06;100.00
22261;BME280;11299;43.202;27.920;2023-06-14T01:15:39;34878.19;;;18.76;100.00
22261;BME280;11299;43.202;27.920;2023-06-14T01:18:06;32437.91;;;19.15;100.00
22261;BME280;11299;43.202;27.920;2023-06-14T01:20:33;26788.59;;;18.56;100.00
22261;BME280;11299;43.202;27.920;2023-06-14T01:23:01;28559.06;;;18.90;100.00
22261;BME280;11299;43.202;27.920;2023-06-14T01:25:27;33809.09;;;18.51;100.00
22261;BME280;11299;43.202;27.920;2023-06-14T01:27:59;42594.06;;;18.31;100.00
22261;BME280;11299;43.202;27.920;2023-06-14T01:30:26;47922.53;;;18.81;100.00
22261;BME280;11299;43.202;27.920;2023-06-14T01:32:53;52500.06;;;18.62;100.00
22261;BME280;11299;43.202;27.920;2023-06-14T01:35:20;52855.78;;;18.64;100.00
22261;BME280;11299;43.202;27.920;2023-06-14T01:37:47;56019.00;;;18.42;100.00
22261;BME280;11299;43.202;27.920;2023-06-14T01:40:14;59519.09;;;18.02;100.00
22261;BME280;11299;43.202;27.920;2023-06-14T01:42:40;53214.69;;;18.70;100.00
22261;BME280;11299;43.202;27.920;2023-06-14T01:45:07;51821.97;;;18.96;100.00
22261;BME280;11299;43.202;27.920;2023-06-14T01:47:34;45083.78;;;18.61;100.00
22261;BME280;11299;43.202;27.920;2023-06-14T01:50:02;33134.41;;;19.02;100.00
22261;BME280;11299;43.202;27.920;2023-06-14T01:52:28;30642.59;;;18.43;100.00
22261;BME280;11299;43.202;27.920;2023-06-14T01:54:54;23961.56;;;18.03;100.00
22261;BME280;11299;43.202;27.920;2023-06-14T01:57:19;22599.81;;;19.03;100.00
22261;BME280;11299;43.202;27.920;2023-06-14T01:59:46;22594.91;;;18.91;100.00
22261;BME280;11299;43.202;27.920;2023-06-14T02:02:13;32302.63;;;16.66;100.00
22261;BME280;11299;43.202;27.920;2023-06-14T02:04:39;44028.28;;;18.65;100.00
22261;BME280;11299;43.202;27.920;2023-06-14T02:07:05;46834.69;;;18.44;100.00
22261;BME280;11299;43.202;27.920;2023-06-14T02:09:30;53503.34;;;17.97;100.00
22261;BME280;11299;43.202;27.920;2023-06-14T02:11:55;55984.06;;;18.05;100.00
22261;BME280;11299;43.202;27.920;2023-06-14T02:14:21;63102.56;;;18.43;100.00
22261;BME280;11299;43.202;27.920;2023-06-14T02:16:46;66600.47;;;17.98;100.00
22261;BME280;11299;43.202;27.920;2023-06-14T02:19:15;70917.47;;;18.48;100.00
22261;BME280;11299;43.202;27.920;2023-06-14T02:21:41;76244.56;;;18.42;100.00
22261;BME280;11299;43.202;27.920;2023-06-14T02:24:07;77993.47;;;18.18;100.00
22261;BME280;11299;43.202;27.920;2023-06-14T02:26:32;79651.59;;;17.25;100.00
22261;BME280;11299;43.202;27.920;2023-06-14T02:28:58;82951.31;;;17.97;100.00
22261;BME280;11299;43.202;27.920;2023-06-14T02:31:23;84739.00;;;18.01;100.00
22261;BME280;11299;43.202;27.920;2023-06-14T02:33:49;86869.50;;;17.95;100.00
22261;BME280;11299;43.202;27.920;2023-06-14T02:36:15;88655.75;;;17.96;100.00
22261;BME280;11299;43.202;27.920;2023-06-14T02:38:40;90068.81;;;17.86;100.00
22261;BME280;11299;43.202;27.920;2023-06-14T02:41:06;89714.78;;;17.88;100.00
22261;BME280;11299;43.202;27.920;2023-06-14T02:43:31;91120.38;;;17.73;100.00
22261;BME280;11299;43.202;27.920;2023-06-14T02:45:57;91507.66;;;17.93;100.00
22261;BME280;11299;43.202;27.920;2023-06-14T02:48:22;90342.09;;;17.30;100.00
22261;BME280;11299;43.202;27.920;2023-06-14T02:50:48;89039.91;;;18.15;100.00
22261;BME280;11299;43.202;27.920;2023-06-14T02:53:13;84736.19;;;17.99;100.00
22261;BME280;11299;43.202;27.920;2023-06-14T02:55:38;86517.13;;;17.98;100.00
22261;BME280;11299;43.202;27.920;2023-06-14T02:58:05;87575.78;;;17.90;100.00
22261;BME280;11299;43.202;27.920;2023-06-14T03:00:31;85447.88;;;17.98;100.00
22261;BME280;11299;43.202;27.920;2023-06-14T03:02:56;83295.94;;;17.88;100.00
22261;BME280;11299;43.202;27.920;2023-06-14T03:05:22;83646.06;;;17.84;100.00
22261;BME280;11299;43.202;27.920;2023-06-14T03:07:48;79079.72;;;18.32;100.00
22261;BME280;11299;43.202;27.920;2023-06-14T03:10:15;73351.88;;;18.04;100.00
22261;BME280;11299;43.202;27.920;2023-06-14T03:12:41;63815.91;;;18.47;100.00
22261;BME280;11299;43.202;27.920;2023-06-14T03:15:07;59896.41;;;18.26;100.00
22261;BME280;11299;43.202;27.920;2023-06-14T03:17:34;59189.28;;;18.27;100.00
22261;BME280;11299;43.202;27.920;2023-06-14T03:20:00;67601.75;;;17.42;100.00
22261;BME280;11299;43.202;27.920;2023-06-14T03:22:26;73294.22;;;17.56;100.00
22261;BME280;11299;43.202;27.920;2023-06-14T03:24:52;71870.00;;;17.52;100.00
22261;BME280;11299;43.202;27.920;2023-06-14T03:27:19;70752.00;;;17.07;100.00
22261;BME280;11299;43.202;27.920;2023-06-14T03:29:45;72624.38;;;17.90;100.00
22261;BME280;11299;43.202;27.920;2023-06-14T03:32:10;71216.19;;;18.00;100.00
22261;BME280;11299;43.202;27.920;2023-06-14T03:34:36;69083.81;;;17.98;100.00
22261;BME280;11299;43.202;27.920;2023-06-14T03:37:04;68380.91;;;18.04;100.00
22261;BME280;11299;43.202;27.920;2023-06-14T03:39:30;69819.69;;;18.21;100.00
22261;BME280;11299;43.202;27.920;2023-06-14T03:41:55;69376.03;;;17.43;100.00
22261;BME280;11299;43.202;27.920;2023-06-14T03:44:21;67968.06;;;17.52;100.00
22261;BME280;11299;43.202;27.920;2023-06-14T03:46:46;70168.41;;;18.15;100.00
22261;BME280;11299;43.202;27.920;2023-06-14T03:49:12;75471.63;;;17.93;100.00
22261;BME280;11299;43.202;27.920;2023-06-14T03:51:38;78701.50;;;18.15;100.00
22261;BME280;11299;43.202;27.920;2023-06-14T03:54:03;80745.19;;;17.45;100.00
22261;BME280;11299;43.202;27.920;2023-06-14T03:56:28;81558.66;;;18.21;100.00
22261;BME280;11299;43.202;27.920;2023-06-14T03:58:54;81095.00;;;17.41;100.00
22261;BME280;11299;43.202;27.920;2023-06-14T04:01:20;82619.59;;;18.15;100.00
22261;BME280;11299;43.202;27.920;2023-06-14T04:03:46;84737.59;;;18.00;100.00
22261;BME280;11299;43.202;27.920;2023-06-14T04:06:11;85589.00;;;16.45;100.00
22261;BME280;11299;43.202;27.920;2023-06-14T04:08:37;86442.75;;;17.45;100.00
22261;BME280;11299;43.202;27.920;2023-06-14T04:11:04;87130.41;;;17.28;100.00
22261;BME280;11299;43.202;27.920;2023-06-14T04:13:30;86562.88;;;18.30;100.00
22261;BME280;11299;43.202;27.920;2023-06-14T04:15:56;83003.44;;;18.35;100.00
22261;BME280;11299;43.202;27.920;2023-06-14T04:18:22;81261.47;;;18.65;100.00
22261;BME280;11299;43.202;27.920;2023-06-14T04:20:49;74428.63;;;18.12;100.00
22261;BME280;11299;43.202;27.920;2023-06-14T04:23:16;68449.50;;;18.65;100.00
22261;BME280;11299;43.202;27.920;2023-06-14T04:25:43;65841.06;;;17.52;100.00
22261;BME280;11299;43.202;27.920;2023-06-14T04:28:15;69430.09;;;17.91;100.00
22261;BME280;11299;43.202;27.920;2023-06-14T04:30:43;72699.59;;;18.52;100.00
22261;BME280;11299;43.202;27.920;2023-06-14T04:33:10;69157.09;;;18.62;100.00
22261;BME280;11299;43.202;27.920;2023-06-14T04:35:36;65195.22;;;18.10;100.00
22261;BME280;11299;43.202;27.920;2023-06-14T04:38:05;62785.53;;;18.79;100.00
22261;BME280;11299;43.202;27.920;2023-06-14T04:40:34;61374.69;;;18.87;100.00
22261;BME280;11299;43.202;27.920;2023-06-14T04:43:01;60201.53;;;17.76;100.00
22261;BME280;11299;43.202;27.920;2023-06-14T04:45:30;61721.59;;;18.79;100.00
22261;BME280;11299;43.202;27.920;2023-06-14T04:47:58;57841.19;;;18.98;100.00
22261;BME280;11299;43.202;27.920;2023-06-14T04:50:25;57834.94;;;18.91;100.00
22261;BME280;11299;43.202;27.920;2023-06-14T04:52:50;53908.63;;;18.55;100.00
22261;BME280;11299;43.202;27.920;2023-06-14T04:55:17;46886.31;;;19.11;100.00
22261;BME280;11299;43.202;27.920;2023-06-14T04:57:44;44018.34;;;18.51;100.00
22261;BME280;11299;43.202;27.920;2023-06-14T05:00:10;44756.47;;;18.96;100.00
22261;BME280;11299;43.202;27.920;2023-06-14T05:02:36;39798.75;;;18.64;100.00
22261;BME280;11299;43.202;27.920;2023-06-14T05:05:03;37693.75;;;18.76;100.00
22261;BME280;11299;43.202;27.920;2023-06-14T05:07:32;32081.03;;;19.05;100.00
22261;BME280;11299;43.202;27.920;2023-06-14T05:09:59;23999.06;;;18.95;100.00
22261;BME280;11299;43.202;27.920;2023-06-14T05:12:24;20517.59;;;19.62;100.00
22261;BME280;11299;43.202;27.920;2023-06-14T05:14:50;22620.66;;;19.57;100.00
22261;BME280;11299;43.202;27.920;2023-06-14T05:17:16;24381.16;;;19.70;100.00
22261;BME280;11299;43.202;27.920;2023-06-14T05:19:42;21904.50;;;19.19;100.00
22261;BME280;11299;43.202;27.920;2023-06-14T05:22:08;20509.41;;;19.39;100.00
22261;BME280;11299;43.202;27.920;2023-06-14T05:24:33;8270.72;;;19.99;100.00
22261;BME280;11299;43.202;27.920;2023-06-14T05:26:59;-1156.44;;;19.33;100.00
22261;BME280;11299;43.202;27.920;2023-06-14T05:29:24;-8471.38;;;20.21;100.00
22261;BME280;11299;43.202;27.920;2023-06-14T05:31:51;-21315.25;;;20.13;100.00
22261;BME280;11299;43.202;27.920;2023-06-14T05:34:16;-21317.75;;;20.21;100.00
22261;BME280;11299;43.202;27.920;2023-06-14T05:36:42;-21319.63;;;20.27;100.00
22261;BME280;11299;43.202;27.920;2023-06-14T05:39:07;-21321.94;;;20.35;100.00
22261;BME280;11299;43.202;27.920;2023-06-14T05:41:33;-21323.97;;;20.41;100.00
22261;BME280;11299;43.202;27.920;2023-06-14T05:43:59;-21304.00;;;19.77;100.00
22261;BME280;11299;43.202;27.920;2023-06-14T05:46:26;-21322.72;;;20.37;100.00
22261;BME280;11299;43.202;27.920;2023-06-14T05:48:52;-21306.50;;;19.85;100.00
22261;BME280;11299;43.202;27.920;2023-06-14T05:51:17;-21330.53;;;20.63;100.00
22261;BME280;11299;43.202;27.920;2023-06-14T05:53:48;-21337.06;;;20.84;100.00
22261;BME280;11299;43.202;27.920;2023-06-14T05:56:15;-21335.97;;;20.80;100.00
22261;BME280;11299;43.202;27.920;2023-06-14T05:58:42;-21343.31;;;21.04;100.00
22261;BME280;11299;43.202;27.920;2023-06-14T06:01:08;-21346.75;;;21.15;100.00
22261;BME280;11299;43.202;27.920;2023-06-14T06:03:33;-21348.00;;;21.19;100.00
22261;BME280;11299;43.202;27.920;2023-06-14T06:05:59;-21358.59;;;21.53;100.00
22261;BME280;11299;43.202;27.920;2023-06-14T06:08:26;-21342.06;;;21.00;100.00
22261;BME280;11299;43.202;27.920;2023-06-14T06:10:51;-21350.31;;;21.26;100.00
22261;BME280;11299;43.202;27.920;2023-06-14T06:13:17;-21346.44;;;21.14;100.00
22261;BME280;11299;43.202;27.920;2023-06-14T06:15:42;-21351.41;;;21.30;100.00
22261;BME280;11299;43.202;27.920;2023-06-14T06:18:08;-21370.72;;;21.92;100.00
22261;BME280;11299;43.202;27.920;2023-06-14T06:20:33;-21344.88;;;21.09;100.00
22261;BME280;11299;43.202;27.920;2023-06-14T06:22:59;-21369.19;;;21.87;100.00
22261;BME280;11299;43.202;27.920;2023-06-14T06:25:26;-21364.03;;;21.71;100.00
22261;BME280;11299;43.202;27.920;2023-06-14T06:27:52;-21361.06;;;21.61;100.00
22261;BME280;11299;43.202;27.920;2023-06-14T06:30:18;-21362.00;;;21.64;100.00
22261;BME280;11299;43.202;27.920;2023-06-14T06:32:44;-21399.69;;;22.86;100.00
22261;BME280;11299;43.202;27.920;2023-06-14T06:35:10;-21407.94;;;23.12;100.00
22261;BME280;11299;43.202;27.920;2023-06-14T06:37:36;-21408.41;;;23.14;100.00
22261;BME280;11299;43.202;27.920;2023-06-14T06:40:02;-21403.41;;;22.98;100.00
22261;BME280;11299;43.202;27.920;2023-06-14T06:42:31;-21407.31;;;23.10;100.00
22261;BME280;11299;43.202;27.920;2023-06-14T06:44:56;-21410.56;;;23.21;100.00
22261;BME280;11299;43.202;27.920;2023-06-14T06:47:22;-21414.00;;;23.32;100.00
22261;BME280;11299;43.202;27.920;2023-06-14T06:49:47;-21420.22;;;23.52;100.00
22261;BME280;11299;43.202;27.920;2023-06-14T06:52:13;-21411.19;;;23.23;100.00
22261;BME280;11299;43.202;27.920;2023-06-14T06:54:39;-21410.09;;;23.19;100.00
22261;BME280;11299;43.202;27.920;2023-06-14T06:57:06;-21410.56;;;23.21;100.00
22261;BME280;11299;43.202;27.920;2023-06-14T06:59:32;-21428.00;;;23.77;100.00
22261;BME280;11299;43.202;27.920;2023-06-14T07:01:58;-21434.50;;;23.98;100.00
22261;BME280;11299;43.202;27.920;2023-06-14T07:04:23;-21444.16;;;24.30;100.00
22261;BME280;11299;43.202;27.920;2023-06-14T07:06:49;-21447.41;;;24.40;100.00
22261;BME280;11299;43.202;27.920;2023-06-14T07:09:14;-21434.22;;;23.97;100.00
22261;BME280;11299;43.202;27.920;2023-06-14T07:11:43;-21445.09;;;24.33;100.00
22261;BME280;11299;43.202;27.920;2023-06-14T07:14:09;-21450.06;;;24.49;100.00
22261;BME280;11299;43.202;27.920;2023-06-14T07:16:34;-21409.94;;;23.19;100.00
22261;BME280;11299;43.202;27.920;2023-06-14T07:19:01;-21441.03;;;24.19;100.00
22261;BME280;11299;43.202;27.920;2023-06-14T07:21:27;-21476.63;;;25.35;100.00
22261;BME280;11299;43.202;27.920;2023-06-14T07:23:53;-21485.00;;;25.62;100.00
22261;BME280;11299;43.202;27.920;2023-06-14T07:26:19;-21486.72;;;25.67;100.00
22261;BME280;11299;43.202;27.920;2023-06-14T07:28:46;-21502.84;;;26.20;100.00
22261;BME280;11299;43.202;27.920;2023-06-14T07:31:12;-21510.28;;;26.44;100.00
22261;BME280;11299;43.202;27.920;2023-06-14T07:33:38;-21523.94;;;26.88;100.00
22261;BME280;11299;43.202;27.920;2023-06-14T07:36:03;-21524.88;;;26.91;100.00
22261;BME280;11299;43.202;27.920;2023-06-14T07:38:29;-21519.91;;;26.75;100.00
22261;BME280;11299;43.202;27.920;2023-06-14T07:40:54;-21533.38;;;27.19;100.00
22261;BME280;11299;43.202;27.920;2023-06-14T07:43:20;-21518.66;;;26.71;99.03
22261;BME280;11299;43.202;27.920;2023-06-14T07:45:45;-21530.44;;;27.09;97.90
22261;BME280;11299;43.202;27.920;2023-06-14T07:48:11;-21509.34;;;26.41;99.70
22261;BME280;11299;43.202;27.920;2023-06-14T07:50:36;-21524.88;;;26.91;98.31
22261;BME280;11299;43.202;27.920;2023-06-14T07:53:03;-21536.94;;;27.30;100.00
22261;BME280;11299;43.202;27.920;2023-06-14T07:55:28;-21509.97;;;26.43;96.96
22261;BME280;11299;43.202;27.920;2023-06-14T07:57:54;-21545.31;;;27.57;97.28
22261;BME280;11299;43.202;27.920;2023-06-14T08:00:20;-21547.16;;;27.63;97.85
22261;BME280;11299;43.202;27.920;2023-06-14T08:02:46;-21542.22;;;27.47;92.66
22261;BME280;11299;43.202;27.920;2023-06-14T08:05:12;-21545.00;;;27.56;95.40
22261;BME280;11299;43.202;27.920;2023-06-14T08:07:38;-21540.66;;;27.42;95.51
22261;BME280;11299;43.202;27.920;2023-06-14T08:10:05;-21558.03;;;27.99;95.29
22261;BME280;11299;43.202;27.920;2023-06-14T08:12:31;-21557.41;;;27.97;92.52
22261;BME280;11299;43.202;27.920;2023-06-14T08:14:57;-21556.31;;;27.93;93.10
22261;BME280;11299;43.202;27.920;2023-06-14T08:17:22;-21549.81;;;27.72;96.17
22261;BME280;11299;43.202;27.920;2023-06-14T08:19:47;-21557.09;;;27.96;100.00
22261;BME280;11299;43.202;27.920;2023-06-14T08:22:13;-21569.00;;;28.34;95.16
22261;BME280;11299;43.202;27.920;2023-06-14T08:24:38;-21577.69;;;28.62;95.01
22261;BME280;11299;43.202;27.920;2023-06-14T08:27:06;-21590.81;;;29.05;97.25
22261;BME280;11299;43.202;27.920;2023-06-14T08:29:31;-21597.94;;;29.28;98.63
22261;BME280;11299;43.202;27.920;2023-06-14T08:31:57;-21574.88;;;28.53;100.00
22261;BME280;11299;43.202;27.920;2023-06-14T08:34:22;-21580.31;;;28.71;99.35
22261;BME280;11299;43.202;27.920;2023-06-14T08:36:51;-21585.56;;;28.88;100.00
22261;BME280;11299;43.202;27.920;2023-06-14T08:39:16;-21569.78;;;28.37;99.68
22261;BME280;11299;43.202;27.920;2023-06-14T08:41:44;-21579.06;;;28.67;94.22
22261;BME280;11299;43.202;27.920;2023-06-14T08:44:11;-21578.59;;;28.65;98.79
22261;BME280;11299;43.202;27.920;2023-06-14T08:46:37;-21573.19;;;28.48;96.68
22261;BME280;11299;43.202;27.920;2023-06-14T08:49:03;-21551.81;;;27.78;100.00
22261;BME280;11299;43.202;27.920;2023-06-14T08:51:31;-21547.16;;;27.63;100.00
22261;BME280;11299;43.202;27.920;2023-06-14T08:54:02;-21531.22;;;27.12;100.00
22261;BME280;11299;43.202;27.920;2023-06-14T08:56:31;-21548.56;;;27.68;100.00
22261;BME280;11299;43.202;27.920;2023-06-14T08:58:58;-21530.75;;;27.10;100.00
22261;BME280;11299;43.202;27.920;2023-06-14T09:01:27;-21546.25;;;27.60;100.00
22261;BME280;11299;43.202;27.920;2023-06-14T09:03:52;-21547.03;;;27.63;100.00
22261;BME280;11299;43.202;27.920;2023-06-14T09:06:20;-21547.16;;;27.63;100.00
22261;BME280;11299;43.202;27.920;2023-06-14T09:08:48;-21541.28;;;27.44;100.00
22261;BME280;11299;43.202;27.920;2023-06-14T09:11:15;-21513.38;;;26.54;100.00
22261;BME280;11299;43.202;27.920;2023-06-14T09:13:44;-21544.22;;;27.54;100.00
22261;BME280;11299;43.202;27.920;2023-06-14T09:16:10;-21546.41;;;27.61;100.00
22261;BME280;11299;43.202;27.920;2023-06-14T09:18:46;-21531.06;;;27.11;100.00
22261;BME280;11299;43.202;27.920;2023-06-14T09:21:16;-21519.91;;;26.75;100.00
22261;BME280;11299;43.202;27.920;2023-06-14T09:23:46;-21524.25;;;26.89;100.00
22261;BME280;11299;43.202;27.920;2023-06-14T09:26:17;-21523.63;;;26.87;100.00
22261;BME280;11299;43.202;27.920;2023-06-14T09:28:45;-21536.31;;;27.28;100.00
22261;BME280;11299;43.202;27.920;2023-06-14T09:31:20;-21539.91;;;27.40;100.00
22261;BME280;11299;43.202;27.920;2023-06-14T09:33:48;-21522.06;;;26.82;100.00
22261;BME280;11299;43.202;27.920;2023-06-14T09:36:24;-21539.59;;;27.39;100.00
22261;BME280;11299;43.202;27.920;2023-06-14T09:38:54;-21530.75;;;27.10;100.00
22261;BME280;11299;43.202;27.920;2023-06-14T09:41:21;-21539.28;;;27.38;100.00
22261;BME280;11299;43.202;27.920;2023-06-14T09:43:56;-21541.28;;;27.44;100.00
22261;BME280;11299;43.202;27.920;2023-06-14T09:46:26;-21531.06;;;27.11;100.00
22261;BME280;11299;43.202;27.920;2023-06-14T09:48:52;-21539.91;;;27.40;100.00
22261;BME280;11299;43.202;27.920;2023-06-14T09:51:18;-21548.41;;;27.67;100.00
22261;BME280;11299;43.202;27.920;2023-06-14T09:53:46;-21538.03;;;27.34;100.00
22261;BME280;11299;43.202;27.920;2023-06-14T09:56:17;-21549.03;;;27.69;100.00
22261;BME280;11299;43.202;27.920;2023-06-14T09:58:49;-21550.13;;;27.73;100.00
22261;BME280;11299;43.202;27.920;2023-06-14T10:01:19;-21547.16;;;27.63;100.00
22261;BME280;11299;43.202;27.920;2023-06-14T10:03:45;-21556.00;;;27.92;100.00
22261;BME280;11299;43.202;27.920;2023-06-14T10:06:12;-21545.94;;;27.59;100.00
22261;BME280;11299;43.202;27.920;2023-06-14T10:08:38;-21577.53;;;28.62;100.00
22261;BME280;11299;43.202;27.920;2023-06-14T10:11:04;-21580.91;;;28.73;100.00
22261;BME280;11299;43.202;27.920;2023-06-14T10:13:32;-21571.00;;;28.41;100.00
22261;BME280;11299;43.202;27.920;2023-06-14T10:16:19;-21580.91;;;28.73;100.00
22261;BME280;11299;43.202;27.920;2023-06-14T10:21:33;-21592.69;;;29.11;100.00
22261;BME280;11299;43.202;27.920;2023-06-14T10:24:07;-21597.63;;;29.27;100.00
22261;BME280;11299;43.202;27.920;2023-06-14T10:26:33;-21579.69;;;28.69;100.00
22261;BME280;11299;43.202;27.920;2023-06-14T10:29:08;-21597.31;;;29.26;100.00
22261;BME280;11299;43.202;27.920;2023-06-14T10:34:07;-21602.56;;;29.43;100.00
22261;BME280;11299;43.202;27.920;2023-06-14T10:36:33;-21583.09;;;28.80;100.00
22261;BME280;11299;43.202;27.920;2023-06-14T10:39:08;-21603.19;;;29.45;100.00
22261;BME280;11299;43.202;27.920;2023-06-14T10:41:39;-21593.00;;;29.12;100.00
22261;BME280;11299;43.202;27.920;2023-06-14T10:46:49;-21598.72;;;29.31;100.00
22261;BME280;11299;43.202;27.920;2023-06-14T10:49:38;-21595.47;;;29.20;100.00
22261;BME280;11299;43.202;27.920;2023-06-14T10:52:15;-21582.78;;;28.79;100.00
22261;BME280;11299;43.202;27.920;2023-06-14T10:55:09;-21564.53;;;28.20;100.00
22261;BME280;11299;43.202;27.920;2023-06-14T10:57:37;-21567.16;;;28.28;100.00
22261;BME280;11299;43.202;27.920;2023-06-14T11:00:07;-21549.81;;;27.72;100.00
22261;BME280;11299;43.202;27.920;2023-06-14T11:10:59;-21530.59;;;27.10;100.00
22261;BME280;11299;43.202;27.920;2023-06-14T11:13:25;-21513.69;;;26.55;100.00
22261;BME280;11299;43.202;27.920;2023-06-14T11:15:51;-21538.03;;;27.34;100.00
22261;BME280;11299;43.202;27.920;2023-06-14T11:18:19;-21539.75;;;27.39;100.00
22261;BME280;11299;43.202;27.920;2023-06-14T11:20:49;-21528.56;;;27.03;100.00
22261;BME280;11299;43.202;27.920;2023-06-14T11:23:15;-21510.75;;;26.45;100.00
22261;BME280;11299;43.202;27.920;2023-06-14T11:25:40;-21524.25;;;26.89;100.00
22261;BME280;11299;43.202;27.920;2023-06-14T11:28:06;-21503.16;;;26.21;100.00
22261;BME280;11299;43.202;27.920;2023-06-14T11:30:32;-21536.00;;;27.27;100.00
22261;BME280;11299;43.202;27.920;2023-06-14T11:32:57;-21545.94;;;27.59;100.00
22261;BME280;11299;43.202;27.920;2023-06-14T11:35:23;-21549.34;;;27.70;100.00
22261;BME280;11299;43.202;27.920;2023-06-14T11:37:53;-21557.56;;;27.97;100.00
22261;BME280;11299;43.202;27.920;2023-06-14T11:40:25;-21553.69;;;27.84;100.00
22261;BME280;11299;43.202;27.920;2023-06-14T11:42:58;-21524.56;;;26.90;100.00
22261;BME280;11299;43.202;27.920;2023-06-14T11:45:25;-21544.38;;;27.54;100.00
22261;BME280;11299;43.202;27.920;2023-06-14T11:47:50;-21538.50;;;27.35;100.00
22261;BME280;11299;43.202;27.920;2023-06-14T11:50:16;-21532.31;;;27.15;100.00
22261;BME280;11299;43.202;27.920;2023-06-14T11:52:42;-21520.22;;;26.76;100.00
22261;BME280;11299;43.202;27.920;2023-06-14T11:55:07;-21499.13;;;26.08;100.00
22261;BME280;11299;43.202;27.920;2023-06-14T11:57:36;-21516.03;;;26.62;100.00
22261;BME280;11299;43.202;27.920;2023-06-14T12:00:04;-21503.47;;;26.22;100.00
22261;BME280;11299;43.202;27.920;2023-06-14T12:02:33;-21503.63;;;26.22;100.00
22261;BME280;11299;43.202;27.920;2023-06-14T12:05:04;-21532.31;;;27.15;100.00
22261;BME280;11299;43.202;27.920;2023-06-14T12:07:32;-21539.13;;;27.37;100.00
22261;BME280;11299;43.202;27.920;2023-06-14T12:12:26;-21543.75;;;27.52;100.00
22261;BME280;11299;43.202;27.920;2023-06-14T12:14:53;-21527.81;;;27.01;100.00
22261;BME280;11299;43.202;27.920;2023-06-14T12:17:19;-21540.34;;;27.41;100.00
22261;BME280;11299;43.202;27.920;2023-06-14T12:19:45;-21548.09;;;27.66;100.00
22261;BME280;11299;43.202;27.920;2023-06-14T12:22:12;-21529.03;;;27.05;100.00
22261;BME280;11299;43.202;27.920;2023-06-14T12:24:38;-21525.47;;;26.93;100.00
22261;BME280;11299;43.202;27.920;2023-06-14T12:27:05;-21530.59;;;27.10;100.00
22261;BME280;11299;43.202;27.920;2023-06-14T12:29:31;-21520.22;;;26.76;100.00
22261;BME280;11299;43.202;27.920;2023-06-14T12:31:57;-21497.56;;;26.02;100.00
22261;BME280;11299;43.202;27.920;2023-06-14T12:34:23;-21517.25;;;26.66;100.00
22261;BME280;11299;43.202;27.920;2023-06-14T12:36:50;-21519.13;;;26.72;100.00
22261;BME280;11299;43.202;27.920;2023-06-14T12:39:15;-21507.34;;;26.34;100.00
22261;BME280;11299;43.202;27.920;2023-06-14T12:41:41;-21503.16;;;26.21;100.00
22261;BME280;11299;43.202;27.920;2023-06-14T12:44:07;-21526.41;;;26.96;100.00
22261;BME280;11299;43.202;27.920;2023-06-14T12:46:34;-21530.75;;;27.10;100.00
22261;BME280;11299;43.202;27.920;2023-06-14T12:49:00;-21524.41;;;26.89;100.00
22261;BME280;11299;43.202;27.920;2023-06-14T12:51:26;-21521.00;;;26.78;100.00
22261;BME280;11299;43.202;27.920;2023-06-14T12:53:51;-21488.25;;;25.72;100.00
22261;BME280;11299;43.202;27.920;2023-06-14T12:56:17;-21489.19;;;25.75;100.00